x

Buoy M01 - Jordan Basin (44037) Wave Buoy

2:04am - Thu 31st Jul 2014 All times are EDT. -4 hours from GMT.

  • Sig Wave height 3.9ft
  • Peak Period 11s
  • Wind
    2mph, 4mph gusts
  • Sea Temp 59°f
  • Air Temp 60°f
  • Sea Pressure 1016.6mb
  • Buoy M01 - Jordan Basin
  • Buoy M01 - Jordan Basin

More Historic Weather Station data

Upgrade to MSW Pro to gain access to the past 30 days of data for over 8000 Wavebouys and Weather Stations around the globe.

Join Pro

Comparision Forecast

View Surf forecast
   
Thu 07/31 2:04am 4ft 11s 2 4 mph 1016.6mb 59f 60f
1:04am 4.5ft 8s 7
mph
1016.7mb 59f 60f
12:04am 4.5ft 8s 7 9 mph 1016.5mb 59f 60f
Wed 07/30 11:04pm 5ft 11s 4 7 mph 1016.4mb 59f 60f
10:04pm 4.5ft 8s 4
mph
1016.2mb 59f 60f
8:04pm 4ft 6s 4 7 mph 1016mb 60f 59f
7:04pm 4.5ft 8s 4
mph
1015.7mb 60f 59f
5:04pm 4.5ft 8s 4 7 mph 1014.9mb 59f 60f
4:04pm 4ft 8s 9
mph
1015.1mb 59f 60f
3:04pm 3.5ft 8s 7 9 mph 1015.1mb 59f 60f
2:04pm 3.5ft 8s 4 7 mph 1015.3mb 59f 60f
1:04pm 3.5ft 6s  -  mph - 59f -
12:04pm 3.5ft 8s 9
mph
1015.9mb 59f 60f
11:04am 3.5ft 8s 7
mph
1016mb 59f 60f
10:04am 4ft 8s 7 9 mph 1016.1mb 58f 60f
9:04am 4.5ft 8s 7
mph
1016.1mb 58f 59f
7:04am 4.5ft 8s 7
mph
1015.9mb 58f 60f
4:04am 4.5ft 8s 7
mph
1014.5mb 58f 60f
3:04am 4ft 8s 7 9 mph 1014.3mb 58f 59f
2:04am 4.5ft 8s 2 4 mph 1014mb 58f 59f
1:04am 4.5ft 8s 4
mph
1013.9mb 58f 60f
12:04am 5ft 8s 4 7 mph 1013.4mb 58f 59f
Tue 07/29 11:04pm 4.5ft 8s 4 7 mph 1013mb 58f 59f
10:04pm 4.5ft 8s 7
mph
1013mb 58f 59f
9:04pm 4.5ft 6s 4
mph
1012.5mb 58f 60f
8:04pm 5.5ft 8s 7
mph
1012.3mb 59f 60f
7:04pm 6ft 8s 7
mph
1011.9mb 58f 61f
6:04pm 5.5ft 11s 9
mph
1011.2mb 59f 62f
4:04pm 6.5ft 11s 9
mph
1009.9mb 58f 61f
2:04pm 6.5ft 8s 9 11 mph 1008.8mb 58f 60f
12:04pm 7ft 8s 11 13 mph 1007.2mb 58f 60f
11:04am 7ft 8s 11 13 mph 1006.4mb 57f 60f
10:04am 6ft 8s 16 18 mph 1005.5mb 57f 61f
8:04am 6ft 8s 11 13 mph 1003.9mb 57f 60f
7:04am 5ft 6s 11 16 mph 1003.1mb 57f 61f
5:04am 6ft 6s 18 20 mph 1001.5mb 57f 62f
4:04am 5.5ft 6s 18 22 mph 1000.8mb 58f 62f
3:04am 5.5ft 6s 20 25 mph 1000.3mb 58f 62f
2:04am 6ft 6s 20 22 mph 1000.1mb 58f 62f
1:04am 5ft 6s 18 20 mph 999.6mb 58f 62f
12:04am 5.5ft 6s 18 20 mph 999.2mb 58f 62f
Mon 07/28 11:04pm 5.5ft 6s 20 25 mph 999.7mb 58f 62f
10:04pm 5ft 5s 20 22 mph 999.5mb 58f 63f
9:04pm 4.5ft 6s 16 20 mph 999.8mb 58f 63f
8:04pm 4.5ft 6s 18
mph
999.8mb 58f 62f
7:04pm 4.5ft 6s 18 20 mph 1000mb 58f 63f
6:04pm 3ft 6s 16 18 mph 1000.6mb 58f 63f
4:04pm 2.5ft 6s 9 11 mph 1001.1mb 59f 62f
3:04pm 3.5ft 8s 11 13 mph 1001.8mb 59f 62f
2:04pm 3ft 5s 7 9 mph 1002.2mb 59f 62f
1:04pm 3.5ft 5s 16 18 mph 1003.6mb 59f 62f
12:04pm 3ft 5s 13 16 mph 1004.2mb 59f 62f
11:04am 2.5ft 6s 13 16 mph 1004mb 59f 61f
10:04am 2.5ft 5s 11 13 mph 1004.3mb 59f 61f
9:04am 2.5ft 5s 11 13 mph 1005mb 59f 61f
8:04am 3.5ft 5s 7 9 mph 1005.3mb 59f 61f
7:04am 3ft 5s 4 7 mph 1005.5mb 59f 61f
6:04am  -   -  9
mph
1005.5mb - 61f
Sun 07/27 11:04pm 3.5ft 5s 16 18 mph 1006.1mb 59f 62f
10:04pm 3.5ft 5s 16
mph
1006.8mb 59f 62f
9:04pm 3.5ft 5s 16 18 mph 1007.2mb 59f 62f
8:04pm 3.5ft 5s 16 18 mph 1007mb 59f 62f
7:04pm 3.5ft 8s 9 11 mph 1007.5mb 59f 61f
6:04pm 3.5ft 8s 11 13 mph 1007.8mb 59f 61f
5:04pm 3.5ft 8s 13 16 mph 1008.4mb 59f 62f
4:04pm 3ft 8s 13
mph
1009.1mb 59f 62f
3:04pm 3.5ft 8s 11 13 mph 1009.2mb 59f 62f
2:04pm 3.5ft 8s 13 16 mph 1009.4mb 59f 62f
1:04pm 3ft 8s 16 18 mph 1009.5mb 59f 62f
12:04pm 3.5ft 5s 13 16 mph 1009.7mb 59f 62f
11:04am 3.5ft 5s 13
mph
1010mb 58f 62f
10:04am 3.5ft 5s 16
mph
1010.4mb 58f 62f
9:04am 3ft 8s 13 16 mph 1010.4mb 58f 61f
8:04am 3.5ft 6s 13 16 mph 1010.6mb - 61f